createdAt,value
2019-03-17T00:00:29.115Z,99755.90
2019-03-17T00:03:00.681Z,99758.27
2019-03-17T00:05:32.135Z,99759.67
2019-03-17T00:08:02.588Z,99756.27
2019-03-17T00:10:34.080Z,99749.74
2019-03-17T00:13:06.297Z,99738.41
2019-03-17T00:15:37.543Z,99735.18
2019-03-17T00:18:15.336Z,99739.69
2019-03-17T00:20:47.795Z,99738.62
2019-03-17T00:23:19.572Z,99738.55
2019-03-17T00:25:52.953Z,99736.70
2019-03-17T00:28:31.264Z,99729.90
2019-03-17T00:31:03.464Z,99723.09
2019-03-17T00:33:39.075Z,99730.47
2019-03-17T00:36:12.367Z,99725.75
2019-03-17T00:38:45.872Z,99724.17
2019-03-17T00:45:27.221Z,99711.98
2019-03-17T00:51:05.280Z,99693.40
2019-03-17T00:54:27.761Z,99704.88
2019-03-17T00:56:58.361Z,99696.66
2019-03-17T00:59:32.582Z,99685.42
2019-03-17T01:02:02.777Z,99680.77
2019-03-17T01:04:33.409Z,99671.33
2019-03-17T01:07:14.078Z,99668.80
2019-03-17T01:09:46.745Z,99662.05
2019-03-17T01:12:23.735Z,99655.47
2019-03-17T01:15:01.529Z,99658.70
2019-03-17T01:17:40.458Z,99633.50
2019-03-17T01:20:12.731Z,99636.02
2019-03-17T01:22:53.774Z,99637.05
2019-03-17T01:25:31.375Z,99637.13
2019-03-17T01:28:16.023Z,99641.42
2019-03-17T01:30:49.699Z,99630.02
2019-03-17T01:33:29.868Z,99621.28
2019-03-17T01:36:00.850Z,99620.13
2019-03-17T01:38:32.430Z,99618.11
2019-03-17T01:41:06.246Z,99609.49
2019-03-17T01:43:36.773Z,99601.72
2019-03-17T01:46:20.719Z,99587.89
2019-03-17T01:48:53.237Z,99587.04
2019-03-17T01:51:27.514Z,99586.94
2019-03-17T01:53:59.147Z,99586.06
2019-03-17T01:56:34.398Z,99579.20
2019-03-17T01:59:31.765Z,99577.95
2019-03-17T02:02:04.835Z,99567.75
2019-03-17T02:04:35.753Z,99570.88
2019-03-17T02:07:08.540Z,99563.52
2019-03-17T02:09:39.759Z,99570.16
2019-03-17T02:12:10.935Z,99570.84
2019-03-17T02:14:41.545Z,99567.95
2019-03-17T02:17:21.521Z,99564.91
2019-03-17T02:19:53.813Z,99567.56
2019-03-17T02:22:26.301Z,99576.23
2019-03-17T02:25:03.252Z,99562.72
2019-03-17T02:27:39.859Z,99561.92
2019-03-17T02:30:12.039Z,99554.45
2019-03-17T02:32:42.573Z,99556.92
2019-03-17T02:35:15.253Z,99556.37
2019-03-17T02:37:45.990Z,99554.25
2019-03-17T02:40:20.156Z,99553.41
2019-03-17T02:42:50.315Z,99542.89
2019-03-17T02:45:21.116Z,99533.84
2019-03-17T02:47:51.701Z,99539.31
2019-03-17T02:50:22.590Z,99527.83
2019-03-17T02:52:54.381Z,99517.87
2019-03-17T02:55:25.779Z,99518.14
2019-03-17T02:57:57.114Z,99522.48
2019-03-17T03:00:28.978Z,99516.20
2019-03-17T03:03:00.767Z,99515.56
2019-03-17T03:05:33.281Z,99517.59
2019-03-17T03:08:13.836Z,99512.47
2019-03-17T03:10:46.569Z,99512.30
2019-03-17T03:13:20.954Z,99511.90
2019-03-17T03:15:51.906Z,99514.55
2019-03-17T03:18:23.656Z,99510.31
2019-03-17T03:20:56.038Z,99495.09
2019-03-17T03:23:28.095Z,99493.77
2019-03-17T03:25:59.954Z,99479.86
2019-03-17T03:28:32.542Z,99485.39
2019-03-17T03:31:02.720Z,99473.75
2019-03-17T03:33:32.877Z,99475.98
2019-03-17T03:36:10.615Z,99458.93
2019-03-17T03:38:34.970Z,99453.59
2019-03-17T03:41:06.109Z,99468.30
2019-03-17T03:43:37.857Z,99469.20
2019-03-17T03:46:08.698Z,99472.48
2019-03-17T03:48:41.067Z,99468.13
2019-03-17T03:51:12.689Z,99473.30
2019-03-17T03:53:45.429Z,99477.33
2019-03-17T03:56:29.243Z,99473.44
2019-03-17T03:59:04.824Z,99466.94
2019-03-17T04:01:37.994Z,99468.48
2019-03-17T04:04:09.311Z,99478.09
2019-03-17T04:06:39.491Z,99458.19
2019-03-17T04:09:09.688Z,99458.84
2019-03-17T04:11:39.910Z,99462.34
2019-03-17T04:14:10.556Z,99466.02
2019-03-17T04:16:41.872Z,99459.61
2019-03-17T04:19:12.372Z,99451.38
2019-03-17T04:21:42.851Z,99451.58
2019-03-17T04:24:13.514Z,99454.23
2019-03-17T04:26:44.123Z,99459.26
2019-03-17T04:29:16.283Z,99450.52
2019-03-17T04:31:47.815Z,99452.60
2019-03-17T04:34:18.409Z,99456.21
2019-03-17T04:36:48.669Z,99454.63
2019-03-17T04:39:18.841Z,99450.09
2019-03-17T04:41:49.534Z,99448.16
2019-03-17T04:44:21.296Z,99445.53
2019-03-17T04:46:56.164Z,99453.27
2019-03-17T04:49:26.340Z,99457.75
2019-03-17T04:51:57.210Z,99457.89
2019-03-17T04:54:29.407Z,99455.30
2019-03-17T04:57:02.934Z,99460.30
2019-03-17T04:59:33.278Z,99453.98
2019-03-17T05:02:06.756Z,99445.80
2019-03-17T05:04:37.019Z,99451.52
2019-03-17T05:07:08.494Z,99452.88
2019-03-17T05:09:39.095Z,99450.19
2019-03-17T05:12:10.417Z,99443.78
2019-03-17T05:14:41.176Z,99440.56
2019-03-17T05:17:13.430Z,99443.92
2019-03-17T05:19:47.102Z,99446.33
2019-03-17T05:22:17.687Z,99447.83
2019-03-17T05:24:48.151Z,99437.03
2019-03-17T05:27:25.387Z,99437.39
2019-03-17T05:29:58.283Z,99433.16
2019-03-17T05:32:30.907Z,99439.16
2019-03-17T05:35:03.370Z,99443.20
2019-03-17T05:37:35.063Z,99446.78
2019-03-17T05:40:07.520Z,99455.86
2019-03-17T05:42:40.671Z,99446.36
2019-03-17T05:45:10.773Z,99459.51
2019-03-17T05:47:44.571Z,99466.27
2019-03-17T05:50:15.478Z,99463.52
2019-03-17T05:52:46.292Z,99466.95
2019-03-17T05:55:18.056Z,99476.00
2019-03-17T05:57:49.254Z,99465.91
2019-03-17T06:00:24.726Z,99465.53
2019-03-17T06:02:55.841Z,99469.88
2019-03-17T06:05:28.064Z,99471.45
2019-03-17T06:07:58.695Z,99473.74
2019-03-17T06:10:28.870Z,99476.65
2019-03-17T06:12:59.061Z,99491.30
2019-03-17T06:15:31.241Z,99489.38
2019-03-17T06:18:02.823Z,99491.55
2019-03-17T06:20:35.505Z,99505.14
2019-03-17T06:23:09.084Z,99500.33
2019-03-17T06:25:41.485Z,99497.11
2019-03-17T06:28:26.918Z,99502.41
2019-03-17T06:31:02.639Z,99504.27
2019-03-17T06:33:35.748Z,99501.32
2019-03-17T06:36:05.906Z,99507.28
2019-03-17T06:38:36.968Z,99512.58
2019-03-17T06:41:07.120Z,99512.98
2019-03-17T06:43:37.701Z,99510.33
2019-03-17T06:46:09.186Z,99504.38
2019-03-17T06:48:40.916Z,99513.70
2019-03-17T06:51:12.004Z,99515.59
2019-03-17T06:53:55.923Z,99518.55
2019-03-17T06:56:21.068Z,99517.31
2019-03-17T06:58:53.695Z,99520.77
2019-03-17T07:01:26.129Z,99519.95
2019-03-17T07:03:58.741Z,99528.58
2019-03-17T07:06:31.882Z,99535.42
2019-03-17T07:09:05.329Z,99533.59
2019-03-17T07:11:38.570Z,99529.63
2019-03-17T07:14:16.375Z,99546.45
2019-03-17T07:16:48.409Z,99527.53
2019-03-17T07:19:20.047Z,99537.66
2019-03-17T07:21:54.385Z,99538.67
2019-03-17T07:24:25.293Z,99541.05
2019-03-17T07:26:58.900Z,99542.08
2019-03-17T07:29:30.561Z,99539.85
2019-03-17T07:32:04.099Z,99546.41
2019-03-17T07:34:34.292Z,99543.44
2019-03-17T07:37:08.128Z,99555.95
2019-03-17T07:39:49.061Z,99575.50
2019-03-17T07:42:23.530Z,99573.86
2019-03-17T07:44:56.879Z,99567.31
2019-03-17T07:47:41.400Z,99584.93
2019-03-17T07:50:15.032Z,99615.12
2019-03-17T07:52:50.660Z,99632.67
2019-03-17T07:55:23.603Z,99631.78
2019-03-17T07:57:58.138Z,99635.95
2019-03-17T08:00:32.112Z,99650.03
2019-03-17T08:03:05.378Z,99643.32
2019-03-17T08:05:36.467Z,99645.88
2019-03-17T08:11:47.473Z,99657.77
2019-03-17T08:14:31.020Z,99661.76
2019-03-17T08:17:04.305Z,99675.18
2019-03-17T08:19:36.035Z,99663.40
2019-03-17T08:22:09.144Z,99663.66
2019-03-17T08:24:43.289Z,99670.79
2019-03-17T08:27:15.941Z,99664.59
2019-03-17T08:29:49.762Z,99661.52
2019-03-17T08:32:24.393Z,99665.48
2019-03-17T08:34:55.091Z,99666.44
2019-03-17T08:37:26.680Z,99674.09
2019-03-17T08:40:04.289Z,99674.23
2019-03-17T08:42:36.348Z,99683.81
2019-03-17T08:45:08.194Z,99686.58
2019-03-17T08:47:40.366Z,99682.51
2019-03-17T08:50:12.694Z,99691.62
2019-03-17T08:52:54.412Z,99695.48
2019-03-17T08:55:28.655Z,99709.52
2019-03-17T08:58:00.540Z,99711.80
2019-03-17T09:00:30.968Z,99715.98
2019-03-17T09:03:02.798Z,99713.83
2019-03-17T09:05:38.223Z,99719.95
2019-03-17T09:08:14.716Z,99726.62
2019-03-17T09:10:54.316Z,99721.80
2019-03-17T09:13:29.765Z,99726.13
2019-03-17T09:19:25.866Z,99725.31
2019-03-17T09:21:56.136Z,99731.55
2019-03-17T09:24:32.200Z,99734.45
2019-03-17T09:27:04.099Z,99746.55
2019-03-17T09:29:36.823Z,99758.98
2019-03-17T09:32:07.717Z,99745.81
2019-03-17T09:34:39.916Z,99751.75
2019-03-17T09:37:12.384Z,99744.14
2019-03-17T09:39:45.390Z,99760.89
2019-03-17T09:42:17.149Z,99757.05
2019-03-17T09:44:48.189Z,99751.09
2019-03-17T09:47:23.243Z,99753.41
2019-03-17T09:49:53.441Z,99768.23
2019-03-17T09:52:24.036Z,99766.62
2019-03-17T09:55:03.737Z,99762.77
2019-03-17T09:57:36.895Z,99768.33
2019-03-17T10:00:10.764Z,99785.26
2019-03-17T10:02:43.072Z,99790.92
2019-03-17T10:05:16.985Z,99788.37
2019-03-17T10:07:50.587Z,99787.81
2019-03-17T10:10:27.881Z,99779.48
2019-03-17T10:13:01.638Z,99783.38
2019-03-17T10:15:35.265Z,99783.31
2019-03-17T10:18:21.769Z,99779.05
2019-03-17T10:20:57.940Z,99775.45
2019-03-17T10:23:34.562Z,99780.72
2019-03-17T10:26:07.830Z,99776.05
2019-03-17T10:28:48.222Z,99782.66
2019-03-17T10:31:22.054Z,99791.84
2019-03-17T10:33:53.976Z,99779.23
2019-03-17T10:36:26.438Z,99792.29
2019-03-17T10:38:58.554Z,99801.39
2019-03-17T10:41:28.684Z,99795.93
2019-03-17T10:44:03.755Z,99803.25
2019-03-17T10:46:35.383Z,99790.91
2019-03-17T10:49:07.178Z,99789.66
2019-03-17T10:51:47.994Z,99795.55
2019-03-17T10:54:19.479Z,99809.95
2019-03-17T10:56:50.465Z,99802.98
2019-03-17T10:59:22.811Z,99811.78
2019-03-17T11:01:54.264Z,99794.93
2019-03-17T11:04:27.159Z,99810.27
2019-03-17T11:06:59.135Z,99811.92
2019-03-17T11:09:29.404Z,99811.95
2019-03-17T11:11:59.937Z,99834.81
2019-03-17T11:14:30.856Z,99833.55
2019-03-17T11:17:01.303Z,99826.84
2019-03-17T11:19:31.940Z,99826.44
2019-03-17T11:22:05.299Z,99853.28
2019-03-17T11:24:37.216Z,99859.02
2019-03-17T11:27:09.802Z,99848.74
2019-03-17T11:29:40.590Z,99853.98
2019-03-17T11:32:11.223Z,99835.53
2019-03-17T11:34:49.541Z,99846.38
2019-03-17T11:37:24.572Z,99851.56
2019-03-17T11:40:03.438Z,99846.05
2019-03-17T11:42:36.202Z,99849.05
2019-03-17T11:45:13.682Z,99859.36
2019-03-17T11:47:44.827Z,99857.26
2019-03-17T11:50:18.625Z,99865.72
2019-03-17T11:52:53.767Z,99852.84
2019-03-17T11:55:25.248Z,99859.14
2019-03-17T11:57:55.794Z,99852.70
2019-03-17T12:00:40.924Z,99863.46
2019-03-17T12:03:33.906Z,99865.49
2019-03-17T12:06:05.054Z,99875.42
2019-03-17T12:08:36.713Z,99868.48
2019-03-17T12:11:08.475Z,99858.86
2019-03-17T12:13:42.808Z,99862.73
2019-03-17T12:16:13.927Z,99861.77
2019-03-17T12:18:45.837Z,99864.89
2019-03-17T12:21:18.502Z,99871.27
2019-03-17T12:23:51.534Z,99874.73
2019-03-17T12:26:22.096Z,99866.45
2019-03-17T12:28:53.878Z,99868.25
2019-03-17T12:31:26.622Z,99880.46
2019-03-17T12:33:56.842Z,99886.05
2019-03-17T12:36:28.899Z,99877.93
2019-03-17T12:39:01.468Z,99886.43
2019-03-17T12:41:38.195Z,99884.42
2019-03-17T12:44:08.967Z,99895.82
2019-03-17T12:46:40.709Z,99892.89
2019-03-17T12:49:14.439Z,99899.90
2019-03-17T12:51:59.424Z,99913.72
2019-03-17T12:54:36.377Z,99909.37
2019-03-17T12:57:09.512Z,99922.65
2019-03-17T12:59:42.599Z,99913.40
2019-03-17T13:02:15.658Z,99930.52
2019-03-17T13:04:48.023Z,99924.11
2019-03-17T13:07:19.488Z,99934.39
2019-03-17T13:09:50.660Z,99951.02
2019-03-17T13:12:22.398Z,99964.38
2019-03-17T13:14:53.336Z,99965.79
2019-03-17T13:17:26.337Z,99965.79
2019-03-17T13:19:57.951Z,99969.25
2019-03-17T13:22:28.664Z,99970.25
2019-03-17T13:25:39.480Z,99970.97
2019-03-17T13:28:16.069Z,99978.02
2019-03-17T13:30:46.230Z,99978.30
2019-03-17T13:33:17.416Z,99989.70
2019-03-17T13:35:50.418Z,99987.09
2019-03-17T13:38:22.599Z,99976.00
2019-03-17T13:40:54.032Z,99996.64
2019-03-17T13:43:25.393Z,99991.39
2019-03-17T13:45:56.128Z,99994.67
2019-03-17T13:48:29.334Z,99997.54
2019-03-17T13:51:00.448Z,100007.34
2019-03-17T13:53:31.625Z,100007.34
2019-03-17T13:56:02.538Z,100019.81
2019-03-17T13:58:32.757Z,100019.22
2019-03-17T14:01:02.917Z,100028.48
2019-03-17T14:03:34.593Z,100038.97
2019-03-17T14:06:05.147Z,100040.70
2019-03-17T14:08:36.086Z,100045.85
2019-03-17T14:11:09.015Z,100050.80
2019-03-17T14:13:40.783Z,100048.11
2019-03-17T14:16:11.013Z,100045.88
2019-03-17T14:18:41.606Z,100044.76
2019-03-17T14:21:11.791Z,100052.24
2019-03-17T14:23:42.022Z,100042.83
2019-03-17T14:26:12.201Z,100047.88
2019-03-17T14:28:43.353Z,100050.23
2019-03-17T14:31:13.552Z,100049.69
2019-03-17T14:33:43.728Z,100055.16
2019-03-17T14:36:14.726Z,100060.03
2019-03-17T14:38:45.677Z,100058.88
2019-03-17T14:41:17.269Z,100064.31
2019-03-17T14:43:48.998Z,100065.08
2019-03-17T14:46:20.994Z,100060.41
2019-03-17T14:48:53.620Z,100063.50
2019-03-17T14:51:24.256Z,100067.66
2019-03-17T14:53:59.260Z,100060.28
2019-03-17T14:56:32.587Z,100062.92
2019-03-17T14:59:03.241Z,100063.00
2019-03-17T15:01:38.961Z,100079.05
2019-03-17T15:04:09.220Z,100077.73
2019-03-17T15:06:40.573Z,100083.34
2019-03-17T15:09:10.784Z,100088.23
2019-03-17T15:11:41.684Z,100097.39
2019-03-17T15:14:11.855Z,100091.89
2019-03-17T15:16:46.485Z,100098.30
2019-03-17T15:19:16.633Z,100103.02
2019-03-17T15:21:46.787Z,100119.76
2019-03-17T15:24:19.981Z,100155.02
2019-03-17T15:26:50.590Z,100172.20
2019-03-17T15:29:23.389Z,100168.84
2019-03-17T15:31:54.068Z,100159.23
2019-03-17T15:34:24.217Z,100170.53
2019-03-17T15:36:54.805Z,100145.39
2019-03-17T15:39:25.011Z,100157.06
2019-03-17T15:41:57.420Z,100152.81
2019-03-17T15:44:29.171Z,100155.06
2019-03-17T15:47:01.380Z,100144.30
2019-03-17T15:49:34.676Z,100137.64
2019-03-17T15:52:06.059Z,100142.25
2019-03-17T15:54:37.171Z,100147.87
2019-03-17T15:57:07.343Z,100146.54
2019-03-17T15:59:37.512Z,100151.16
2019-03-17T16:02:07.673Z,100140.11
2019-03-17T16:04:38.818Z,100156.05
2019-03-17T16:07:11.283Z,100164.07
2019-03-17T16:09:43.581Z,100163.75
2019-03-17T16:12:15.997Z,100171.79
2019-03-17T16:14:46.612Z,100182.78
2019-03-17T16:17:17.035Z,100186.81
2019-03-17T16:19:47.646Z,100183.42
2019-03-17T16:22:17.788Z,100184.75
2019-03-17T16:24:49.498Z,100193.27
2019-03-17T16:27:21.974Z,100195.67
2019-03-17T16:29:52.517Z,100203.59
2019-03-17T16:32:25.405Z,100206.82
2019-03-17T16:34:56.638Z,100208.95
2019-03-17T16:37:26.834Z,100206.97
2019-03-17T16:39:58.157Z,100209.95
2019-03-17T16:42:32.144Z,100215.54
2019-03-17T16:45:02.478Z,100211.56
2019-03-17T16:47:34.877Z,100213.53
2019-03-17T16:50:06.157Z,100225.97
2019-03-17T16:52:39.705Z,100230.63
2019-03-17T16:55:16.160Z,100243.77
2019-03-17T16:57:50.606Z,100243.06
2019-03-17T17:00:20.918Z,100251.42
2019-03-17T17:02:52.267Z,100249.14
2019-03-17T17:05:23.055Z,100248.14
2019-03-17T17:07:53.737Z,100243.42
2019-03-17T17:10:24.909Z,100276.64
2019-03-17T17:12:55.533Z,100255.98
2019-03-17T17:15:27.694Z,100253.17
2019-03-17T17:17:58.224Z,100255.41
2019-03-17T17:20:30.196Z,100257.30
2019-03-17T17:23:00.730Z,100267.15
2019-03-17T17:25:32.285Z,100267.19
2019-03-17T17:28:02.440Z,100269.48
2019-03-17T17:30:32.595Z,100282.99
2019-03-17T17:33:03.213Z,100274.70
2019-03-17T17:35:36.140Z,100272.73
2019-03-17T17:38:06.306Z,100281.52
2019-03-17T17:40:37.347Z,100283.21
2019-03-17T17:43:09.023Z,100292.17
2019-03-17T17:45:40.856Z,100290.83
2019-03-17T17:48:11.737Z,100296.27
2019-03-17T17:50:47.319Z,100299.50
2019-03-17T17:53:20.558Z,100306.98
2019-03-17T17:55:54.606Z,100311.22
2019-03-17T17:58:25.338Z,100318.05
2019-03-17T18:00:56.915Z,100323.70
2019-03-17T18:03:27.111Z,100333.36
2019-03-17T18:05:57.675Z,100332.89
2019-03-17T18:08:28.410Z,100346.56
2019-03-17T18:11:00.034Z,100346.67
2019-03-17T18:13:30.195Z,100367.48
2019-03-17T18:16:00.373Z,100364.27
2019-03-17T18:18:30.987Z,100383.22
2019-03-17T18:21:01.621Z,100402.03
2019-03-17T18:23:35.021Z,100424.99
2019-03-17T18:26:06.880Z,100451.75
2019-03-17T18:28:39.883Z,100470.77
2019-03-17T18:31:10.075Z,100476.61
2019-03-17T18:33:42.690Z,100469.92
2019-03-17T18:36:13.529Z,100473.41
2019-03-17T18:38:45.377Z,100464.86
2019-03-17T18:41:15.831Z,100466.47
2019-03-17T18:43:47.092Z,100474.83
2019-03-17T18:46:20.034Z,100474.82
2019-03-17T18:48:52.346Z,100475.88
2019-03-17T18:51:25.379Z,100471.52
2019-03-17T18:54:01.211Z,100466.30
2019-03-17T18:56:32.949Z,100482.20
2019-03-17T18:59:18.004Z,100479.23
2019-03-17T19:01:49.688Z,100490.47
2019-03-17T19:04:22.779Z,100497.52
2019-03-17T19:06:52.998Z,100489.90
2019-03-17T19:09:23.671Z,100492.13
2019-03-17T19:11:58.908Z,100486.45
2019-03-17T19:14:29.118Z,100488.83
2019-03-17T19:17:02.979Z,100491.10
2019-03-17T19:19:33.586Z,100493.20
2019-03-17T19:22:08.102Z,100502.70
2019-03-17T19:24:46.430Z,100502.10
2019-03-17T19:27:24.160Z,100507.56
2019-03-17T19:29:57.719Z,100505.80
2019-03-17T19:33:09.563Z,100500.22
2019-03-17T19:35:47.591Z,100519.63
2019-03-17T19:38:18.949Z,100521.08
2019-03-17T19:40:49.882Z,100528.81
2019-03-17T19:43:28.783Z,100536.22
2019-03-17T19:46:12.378Z,100531.91
2019-03-17T19:49:08.404Z,100533.69
2019-03-17T19:51:41.801Z,100541.81
2019-03-17T19:54:24.537Z,100539.48
2019-03-17T19:57:28.756Z,100544.53
2019-03-17T20:03:42.728Z,100544.15
2019-03-17T20:06:13.496Z,100555.02
2019-03-17T20:08:46.303Z,100547.70
2019-03-17T20:12:19.433Z,100558.52
2019-03-17T20:14:58.818Z,100564.76
2019-03-17T20:18:09.355Z,100569.14
2019-03-17T20:21:16.137Z,100567.31
2019-03-17T20:23:50.504Z,100581.80
2019-03-17T20:27:01.248Z,100590.81
2019-03-17T20:30:18.991Z,100592.17
2019-03-17T20:33:15.833Z,100598.42
2019-03-17T20:35:48.998Z,100602.14
2019-03-17T20:38:38.639Z,100598.98
2019-03-17T20:42:00.677Z,100607.03
2019-03-17T20:45:05.513Z,100607.16
2019-03-17T20:48:19.992Z,100607.33
2019-03-17T20:54:13.539Z,100617.41
2019-03-17T20:56:48.686Z,100618.55
2019-03-17T20:59:27.294Z,100615.60
2019-03-17T21:02:02.332Z,100615.52
2019-03-17T21:04:34.416Z,100614.09
2019-03-17T21:07:05.012Z,100616.72
2019-03-17T21:09:36.668Z,100628.14
2019-03-17T21:12:11.459Z,100630.59
2019-03-17T21:14:48.298Z,100623.24
2019-03-17T21:17:19.950Z,100617.84
2019-03-17T21:19:50.219Z,100619.28
2019-03-17T21:22:22.032Z,100623.75
2019-03-17T21:24:54.940Z,100619.30
2019-03-17T21:27:26.685Z,100623.31
2019-03-17T21:30:01.371Z,100632.82
2019-03-17T21:32:31.927Z,100632.91
2019-03-17T21:35:04.866Z,100635.75
2019-03-17T21:37:35.689Z,100634.34
2019-03-17T21:40:07.434Z,100647.19
2019-03-17T21:42:46.627Z,100641.53
2019-03-17T21:45:27.169Z,100635.62
2019-03-17T21:48:02.582Z,100643.87
2019-03-17T21:50:34.789Z,100646.05
2019-03-17T21:53:04.997Z,100658.59
2019-03-17T21:55:35.527Z,100681.16
2019-03-17T21:58:08.611Z,100699.53
2019-03-17T22:00:43.024Z,100702.51
2019-03-17T22:03:19.774Z,100716.37
2019-03-17T22:05:49.974Z,100712.83
2019-03-17T22:08:22.987Z,100720.40
2019-03-17T22:10:53.861Z,100718.13
2019-03-17T22:13:26.044Z,100721.91
2019-03-17T22:15:56.255Z,100721.98
2019-03-17T22:18:35.915Z,100712.14
2019-03-17T22:21:06.701Z,100708.33
2019-03-17T22:23:39.432Z,100696.50
2019-03-17T22:26:09.584Z,100699.95
2019-03-17T22:28:43.507Z,100694.55
2019-03-17T22:31:16.931Z,100696.26
2019-03-17T22:33:51.464Z,100685.03
2019-03-17T22:36:21.723Z,100693.27
2019-03-17T22:38:57.049Z,100685.84
2019-03-17T22:41:36.693Z,100694.16
2019-03-17T22:44:23.941Z,100692.06
2019-03-17T22:46:46.875Z,100694.37
2019-03-17T22:49:40.950Z,100697.55
2019-03-17T22:52:14.197Z,100700.73
2019-03-17T22:54:51.745Z,100706.73
2019-03-17T23:00:59.210Z,100712.63
2019-03-17T23:03:30.492Z,100710.41
2019-03-17T23:06:01.959Z,100712.06
2019-03-17T23:08:38.289Z,100714.77
2019-03-17T23:11:11.353Z,100713.58
2019-03-17T23:13:46.646Z,100721.83
2019-03-17T23:16:21.276Z,100709.03
2019-03-17T23:18:57.134Z,100708.93
2019-03-17T23:21:28.873Z,100717.91
2019-03-17T23:24:00.945Z,100721.17
2019-03-17T23:26:31.169Z,100723.66
2019-03-17T23:29:02.346Z,100722.88
2019-03-17T23:31:32.639Z,100720.12
2019-03-17T23:37:23.034Z,100722.36
2019-03-17T23:39:57.000Z,100729.63
2019-03-17T23:43:09.160Z,100714.57
2019-03-17T23:47:08.288Z,100716.87
2019-03-17T23:50:26.262Z,100713.97
2019-03-17T23:54:00.279Z,100714.09
2019-03-17T23:56:37.474Z,100719.61
2019-03-17T23:59:12.363Z,100713.98
